sensor_id;sensor_type;location;lat;lon;timestamp;temperature;humidity
4354;DHT22;11018;51.258;6.806;2023-08-20T00:02:08;20.90;76.60
4354;DHT22;11018;51.258;6.806;2023-08-20T00:04:36;20.90;76.10
4354;DHT22;11018;51.258;6.806;2023-08-20T00:07:02;20.70;79.20
4354;DHT22;11018;51.258;6.806;2023-08-20T00:09:28;20.70;77.80
4354;DHT22;11018;51.258;6.806;2023-08-20T00:11:54;20.80;77.60
4354;DHT22;11018;51.258;6.806;2023-08-20T00:14:20;20.80;77.60
4354;DHT22;11018;51.258;6.806;2023-08-20T00:16:46;20.60;78.40
4354;DHT22;11018;51.258;6.806;2023-08-20T00:19:12;20.50;80.60
4354;DHT22;11018;51.258;6.806;2023-08-20T00:21:41;20.30;84.60
4354;DHT22;11018;51.258;6.806;2023-08-20T00:24:08;20.20;85.90
4354;DHT22;11018;51.258;6.806;2023-08-20T00:26:34;20.10;89.50
4354;DHT22;11018;51.258;6.806;2023-08-20T00:28:59;20.00;91.70
4354;DHT22;11018;51.258;6.806;2023-08-20T00:31:25;19.90;93.40
4354;DHT22;11018;51.258;6.806;2023-08-20T00:33:51;20.20;90.90
4354;DHT22;11018;51.258;6.806;2023-08-20T00:36:16;20.20;91.00
4354;DHT22;11018;51.258;6.806;2023-08-20T00:38:42;20.30;90.00
4354;DHT22;11018;51.258;6.806;2023-08-20T00:41:07;20.40;87.40
4354;DHT22;11018;51.258;6.806;2023-08-20T00:43:33;20.20;89.90
4354;DHT22;11018;51.258;6.806;2023-08-20T00:45:59;20.10;93.10
4354;DHT22;11018;51.258;6.806;2023-08-20T00:48:25;20.00;95.50
4354;DHT22;11018;51.258;6.806;2023-08-20T00:50:51;20.00;96.40
4354;DHT22;11018;51.258;6.806;2023-08-20T00:53:17;20.00;93.90
4354;DHT22;11018;51.258;6.806;2023-08-20T00:55:43;19.90;98.00
4354;DHT22;11018;51.258;6.806;2023-08-20T00:58:10;19.80;99.90
4354;DHT22;11018;51.258;6.806;2023-08-20T01:00:36;19.80;99.90
4354;DHT22;11018;51.258;6.806;2023-08-20T01:03:01;19.80;99.90
4354;DHT22;11018;51.258;6.806;2023-08-20T01:05:31;19.70;99.90
4354;DHT22;11018;51.258;6.806;2023-08-20T01:08:34;20.00;98.20
4354;DHT22;11018;51.258;6.806;2023-08-20T01:11:21;19.90;99.20
4354;DHT22;11018;51.258;6.806;2023-08-20T01:13:50;19.80;99.90
4354;DHT22;11018;51.258;6.806;2023-08-20T01:16:15;19.70;99.90
4354;DHT22;11018;51.258;6.806;2023-08-20T01:18:41;19.60;99.90
4354;DHT22;11018;51.258;6.806;2023-08-20T01:21:38;19.50;99.90
4354;DHT22;11018;51.258;6.806;2023-08-20T01:27:28;19.40;99.90
4354;DHT22;11018;51.258;6.806;2023-08-20T01:29:57;19.40;99.90
4354;DHT22;11018;51.258;6.806;2023-08-20T01:32:24;19.40;99.90
4354;DHT22;11018;51.258;6.806;2023-08-20T01:34:50;19.40;99.90
4354;DHT22;11018;51.258;6.806;2023-08-20T01:37:17;19.50;99.90
4354;DHT22;11018;51.258;6.806;2023-08-20T01:39:42;19.80;99.90
4354;DHT22;11018;51.258;6.806;2023-08-20T01:42:08;19.70;99.90
4354;DHT22;11018;51.258;6.806;2023-08-20T01:44:33;19.60;99.90
4354;DHT22;11018;51.258;6.806;2023-08-20T01:46:59;19.50;99.90
4354;DHT22;11018;51.258;6.806;2023-08-20T01:49:25;19.50;99.90
4354;DHT22;11018;51.258;6.806;2023-08-20T01:51:50;19.50;99.90
4354;DHT22;11018;51.258;6.806;2023-08-20T01:54:16;19.60;99.90
4354;DHT22;11018;51.258;6.806;2023-08-20T01:56:42;19.60;99.90
4354;DHT22;11018;51.258;6.806;2023-08-20T01:59:08;19.50;99.90
4354;DHT22;11018;51.258;6.806;2023-08-20T02:01:33;19.50;99.90
4354;DHT22;11018;51.258;6.806;2023-08-20T02:03:59;19.60;99.90
4354;DHT22;11018;51.258;6.806;2023-08-20T02:06:25;19.70;99.90
4354;DHT22;11018;51.258;6.806;2023-08-20T02:08:50;19.90;99.90
4354;DHT22;11018;51.258;6.806;2023-08-20T02:11:16;19.90;99.90
4354;DHT22;11018;51.258;6.806;2023-08-20T02:13:41;19.90;99.90
4354;DHT22;11018;51.258;6.806;2023-08-20T02:16:07;19.90;99.90
4354;DHT22;11018;51.258;6.806;2023-08-20T02:18:33;19.80;99.90
4354;DHT22;11018;51.258;6.806;2023-08-20T02:20:58;19.70;99.90
4354;DHT22;11018;51.258;6.806;2023-08-20T02:23:24;19.70;99.90
4354;DHT22;11018;51.258;6.806;2023-08-20T02:25:49;19.80;99.90
4354;DHT22;11018;51.258;6.806;2023-08-20T02:28:15;20.10;99.90
4354;DHT22;11018;51.258;6.806;2023-08-20T02:30:42;20.00;99.90
4354;DHT22;11018;51.258;6.806;2023-08-20T02:33:08;20.00;99.90
4354;DHT22;11018;51.258;6.806;2023-08-20T02:35:33;20.20;99.90
4354;DHT22;11018;51.258;6.806;2023-08-20T02:37:59;20.40;98.90
4354;DHT22;11018;51.258;6.806;2023-08-20T02:40:24;20.50;93.80
4354;DHT22;11018;51.258;6.806;2023-08-20T02:42:50;20.60;92.40
4354;DHT22;11018;51.258;6.806;2023-08-20T02:45:15;20.60;91.10
4354;DHT22;11018;51.258;6.806;2023-08-20T02:47:41;20.60;92.30
4354;DHT22;11018;51.258;6.806;2023-08-20T02:50:07;20.60;93.00
4354;DHT22;11018;51.258;6.806;2023-08-20T02:52:32;20.50;92.60
4354;DHT22;11018;51.258;6.806;2023-08-20T02:54:58;20.40;92.70
4354;DHT22;11018;51.258;6.806;2023-08-20T02:57:23;20.40;93.60
4354;DHT22;11018;51.258;6.806;2023-08-20T02:59:50;20.30;93.90
4354;DHT22;11018;51.258;6.806;2023-08-20T03:02:15;20.20;94.30
4354;DHT22;11018;51.258;6.806;2023-08-20T03:04:41;19.90;99.90
4354;DHT22;11018;51.258;6.806;2023-08-20T03:07:06;20.00;99.90
4354;DHT22;11018;51.258;6.806;2023-08-20T03:09:32;20.10;97.50
4354;DHT22;11018;51.258;6.806;2023-08-20T03:11:58;20.10;98.40
4354;DHT22;11018;51.258;6.806;2023-08-20T03:14:23;20.10;98.40
4354;DHT22;11018;51.258;6.806;2023-08-20T03:16:49;20.20;94.90
4354;DHT22;11018;51.258;6.806;2023-08-20T03:19:15;20.20;92.10
4354;DHT22;11018;51.258;6.806;2023-08-20T03:21:41;20.20;90.20
4354;DHT22;11018;51.258;6.806;2023-08-20T03:24:07;20.20;89.70
4354;DHT22;11018;51.258;6.806;2023-08-20T03:26:33;20.20;89.40
4354;DHT22;11018;51.258;6.806;2023-08-20T03:28:59;20.20;88.90
4354;DHT22;11018;51.258;6.806;2023-08-20T03:31:25;20.20;90.80
4354;DHT22;11018;51.258;6.806;2023-08-20T03:33:50;20.10;91.10
4354;DHT22;11018;51.258;6.806;2023-08-20T03:36:16;20.00;91.90
4354;DHT22;11018;51.258;6.806;2023-08-20T03:38:42;19.80;97.10
4354;DHT22;11018;51.258;6.806;2023-08-20T03:41:07;19.80;99.30
4354;DHT22;11018;51.258;6.806;2023-08-20T03:43:33;19.70;99.90
4354;DHT22;11018;51.258;6.806;2023-08-20T03:45:58;19.90;99.80
4354;DHT22;11018;51.258;6.806;2023-08-20T03:48:24;20.10;93.90
4354;DHT22;11018;51.258;6.806;2023-08-20T03:50:49;20.10;87.50
4354;DHT22;11018;51.258;6.806;2023-08-20T03:53:15;20.20;86.00
4354;DHT22;11018;51.258;6.806;2023-08-20T03:55:41;20.20;85.10
4354;DHT22;11018;51.258;6.806;2023-08-20T03:58:07;20.10;85.70
4354;DHT22;11018;51.258;6.806;2023-08-20T04:00:34;20.00;86.20
4354;DHT22;11018;51.258;6.806;2023-08-20T04:03:00;20.00;86.90
4354;DHT22;11018;51.258;6.806;2023-08-20T04:05:25;19.90;89.00
4354;DHT22;11018;51.258;6.806;2023-08-20T04:07:51;19.90;88.40
4354;DHT22;11018;51.258;6.806;2023-08-20T04:10:16;19.80;90.10
4354;DHT22;11018;51.258;6.806;2023-08-20T04:12:42;19.50;96.20
4354;DHT22;11018;51.258;6.806;2023-08-20T04:15:08;19.30;99.90
4354;DHT22;11018;51.258;6.806;2023-08-20T04:17:33;19.10;99.90
4354;DHT22;11018;51.258;6.806;2023-08-20T04:19:59;19.00;99.90
4354;DHT22;11018;51.258;6.806;2023-08-20T04:22:24;19.00;99.90
4354;DHT22;11018;51.258;6.806;2023-08-20T04:24:50;18.90;99.90
4354;DHT22;11018;51.258;6.806;2023-08-20T04:27:16;19.10;99.90
4354;DHT22;11018;51.258;6.806;2023-08-20T04:29:41;19.20;99.90
4354;DHT22;11018;51.258;6.806;2023-08-20T04:32:07;19.20;99.90
4354;DHT22;11018;51.258;6.806;2023-08-20T04:34:32;19.00;99.90
4354;DHT22;11018;51.258;6.806;2023-08-20T04:36:58;18.90;99.90
4354;DHT22;11018;51.258;6.806;2023-08-20T04:39:24;18.90;99.90
4354;DHT22;11018;51.258;6.806;2023-08-20T04:41:49;19.20;99.90
4354;DHT22;11018;51.258;6.806;2023-08-20T04:44:15;19.40;99.90
4354;DHT22;11018;51.258;6.806;2023-08-20T04:46:42;19.40;98.90
4354;DHT22;11018;51.258;6.806;2023-08-20T04:49:07;19.30;99.90
4354;DHT22;11018;51.258;6.806;2023-08-20T04:51:33;19.30;99.90
4354;DHT22;11018;51.258;6.806;2023-08-20T04:53:59;19.20;99.90
4354;DHT22;11018;51.258;6.806;2023-08-20T04:56:24;19.00;99.90
4354;DHT22;11018;51.258;6.806;2023-08-20T04:58:50;19.00;99.90
4354;DHT22;11018;51.258;6.806;2023-08-20T05:01:15;19.20;99.90
4354;DHT22;11018;51.258;6.806;2023-08-20T05:03:41;19.30;99.90
4354;DHT22;11018;51.258;6.806;2023-08-20T05:06:07;19.30;99.90
4354;DHT22;11018;51.258;6.806;2023-08-20T05:08:32;19.40;99.90
4354;DHT22;11018;51.258;6.806;2023-08-20T05:10:58;19.40;99.90
4354;DHT22;11018;51.258;6.806;2023-08-20T05:13:23;19.30;99.90
4354;DHT22;11018;51.258;6.806;2023-08-20T05:15:49;19.20;99.90
4354;DHT22;11018;51.258;6.806;2023-08-20T05:18:15;19.40;99.90
4354;DHT22;11018;51.258;6.806;2023-08-20T05:20:40;19.50;99.90
4354;DHT22;11018;51.258;6.806;2023-08-20T05:23:06;19.70;97.10
4354;DHT22;11018;51.258;6.806;2023-08-20T05:25:32;19.80;93.80
4354;DHT22;11018;51.258;6.806;2023-08-20T05:27:57;19.80;91.80
4354;DHT22;11018;51.258;6.806;2023-08-20T05:30:23;19.90;89.80
4354;DHT22;11018;51.258;6.806;2023-08-20T05:32:49;19.90;91.00
4354;DHT22;11018;51.258;6.806;2023-08-20T05:35:14;19.80;93.70
4354;DHT22;11018;51.258;6.806;2023-08-20T05:37:40;19.80;94.70
4354;DHT22;11018;51.258;6.806;2023-08-20T05:40:06;19.80;95.00
4354;DHT22;11018;51.258;6.806;2023-08-20T05:42:34;19.80;96.00
4354;DHT22;11018;51.258;6.806;2023-08-20T05:44:59;19.80;95.40
4354;DHT22;11018;51.258;6.806;2023-08-20T05:47:25;19.70;97.50
4354;DHT22;11018;51.258;6.806;2023-08-20T05:49:51;19.70;98.80
4354;DHT22;11018;51.258;6.806;2023-08-20T05:52:16;19.70;98.50
4354;DHT22;11018;51.258;6.806;2023-08-20T05:54:42;19.80;98.00
4354;DHT22;11018;51.258;6.806;2023-08-20T05:57:07;19.80;98.60
4354;DHT22;11018;51.258;6.806;2023-08-20T05:59:33;20.00;94.00
4354;DHT22;11018;51.258;6.806;2023-08-20T06:02:00;20.10;93.50
4354;DHT22;11018;51.258;6.806;2023-08-20T06:04:26;20.10;91.60
4354;DHT22;11018;51.258;6.806;2023-08-20T06:06:51;20.20;91.10
4354;DHT22;11018;51.258;6.806;2023-08-20T06:09:17;20.20;89.40
4354;DHT22;11018;51.258;6.806;2023-08-20T06:11:42;20.50;85.60
4354;DHT22;11018;51.258;6.806;2023-08-20T06:14:08;20.90;77.50
4354;DHT22;11018;51.258;6.806;2023-08-20T06:16:34;21.00;74.90
4354;DHT22;11018;51.258;6.806;2023-08-20T06:18:59;21.00;74.40
4354;DHT22;11018;51.258;6.806;2023-08-20T06:21:25;20.90;75.20
4354;DHT22;11018;51.258;6.806;2023-08-20T06:23:50;20.90;76.60
4354;DHT22;11018;51.258;6.806;2023-08-20T06:26:16;21.00;76.80
4354;DHT22;11018;51.258;6.806;2023-08-20T06:28:41;21.00;74.90
4354;DHT22;11018;51.258;6.806;2023-08-20T06:31:07;21.10;74.90
4354;DHT22;11018;51.258;6.806;2023-08-20T06:33:32;21.20;72.60
4354;DHT22;11018;51.258;6.806;2023-08-20T06:35:58;21.20;72.40
4354;DHT22;11018;51.258;6.806;2023-08-20T06:38:23;21.20;73.70
4354;DHT22;11018;51.258;6.806;2023-08-20T06:40:50;21.30;72.40
4354;DHT22;11018;51.258;6.806;2023-08-20T06:43:15;21.40;73.60
4354;DHT22;11018;51.258;6.806;2023-08-20T06:45:41;21.50;72.20
4354;DHT22;11018;51.258;6.806;2023-08-20T06:48:06;21.50;71.40
4354;DHT22;11018;51.258;6.806;2023-08-20T06:50:32;21.70;68.70
4354;DHT22;11018;51.258;6.806;2023-08-20T06:52:57;21.90;67.00
4354;DHT22;11018;51.258;6.806;2023-08-20T06:55:23;22.10;65.20
4354;DHT22;11018;51.258;6.806;2023-08-20T06:57:48;22.20;62.70
4354;DHT22;11018;51.258;6.806;2023-08-20T07:00:14;22.10;64.70
4354;DHT22;11018;51.258;6.806;2023-08-20T07:02:40;22.40;61.00
4354;DHT22;11018;51.258;6.806;2023-08-20T07:05:06;22.50;60.90
4354;DHT22;11018;51.258;6.806;2023-08-20T07:07:35;22.50;60.60
4354;DHT22;11018;51.258;6.806;2023-08-20T07:10:00;22.60;59.70
4354;DHT22;11018;51.258;6.806;2023-08-20T07:12:26;22.70;59.70
4354;DHT22;11018;51.258;6.806;2023-08-20T07:14:51;22.70;58.40
4354;DHT22;11018;51.258;6.806;2023-08-20T07:17:17;22.70;58.50
4354;DHT22;11018;51.258;6.806;2023-08-20T07:19:42;22.80;58.40
4354;DHT22;11018;51.258;6.806;2023-08-20T07:22:08;22.90;58.90
4354;DHT22;11018;51.258;6.806;2023-08-20T07:24:34;23.00;57.70
4354;DHT22;11018;51.258;6.806;2023-08-20T07:27:01;23.10;56.80
4354;DHT22;11018;51.258;6.806;2023-08-20T07:29:32;23.20;56.10
4354;DHT22;11018;51.258;6.806;2023-08-20T07:31:57;23.10;57.30
4354;DHT22;11018;51.258;6.806;2023-08-20T07:34:23;23.40;55.30
4354;DHT22;11018;51.258;6.806;2023-08-20T07:36:49;23.50;54.20
4354;DHT22;11018;51.258;6.806;2023-08-20T07:39:14;23.60;53.60
4354;DHT22;11018;51.258;6.806;2023-08-20T07:41:43;23.60;54.00
4354;DHT22;11018;51.258;6.806;2023-08-20T07:44:08;23.40;54.30
4354;DHT22;11018;51.258;6.806;2023-08-20T07:46:37;23.60;54.90
4354;DHT22;11018;51.258;6.806;2023-08-20T07:49:03;23.90;52.20
4354;DHT22;11018;51.258;6.806;2023-08-20T07:51:29;24.00;51.70
4354;DHT22;11018;51.258;6.806;2023-08-20T07:53:54;24.10;50.80
4354;DHT22;11018;51.258;6.806;2023-08-20T07:56:20;24.00;49.70
4354;DHT22;11018;51.258;6.806;2023-08-20T07:58:45;24.00;50.60
4354;DHT22;11018;51.258;6.806;2023-08-20T08:01:11;24.00;50.00
4354;DHT22;11018;51.258;6.806;2023-08-20T08:03:40;24.00;50.50
4354;DHT22;11018;51.258;6.806;2023-08-20T08:06:08;24.50;47.70
4354;DHT22;11018;51.258;6.806;2023-08-20T08:08:33;24.50;47.20
4354;DHT22;11018;51.258;6.806;2023-08-20T08:10:59;24.40;45.30
4354;DHT22;11018;51.258;6.806;2023-08-20T08:13:25;24.40;45.70
4354;DHT22;11018;51.258;6.806;2023-08-20T08:15:52;24.50;45.60
4354;DHT22;11018;51.258;6.806;2023-08-20T08:18:21;24.60;45.00
4354;DHT22;11018;51.258;6.806;2023-08-20T08:20:47;24.60;44.60
4354;DHT22;11018;51.258;6.806;2023-08-20T08:23:13;24.70;43.50
4354;DHT22;11018;51.258;6.806;2023-08-20T08:25:39;24.70;42.70
4354;DHT22;11018;51.258;6.806;2023-08-20T08:28:05;24.70;43.60
4354;DHT22;11018;51.258;6.806;2023-08-20T08:30:31;24.70;43.90
4354;DHT22;11018;51.258;6.806;2023-08-20T08:32:58;24.90;43.20
4354;DHT22;11018;51.258;6.806;2023-08-20T08:35:24;24.90;43.40
4354;DHT22;11018;51.258;6.806;2023-08-20T08:37:49;25.10;42.40
4354;DHT22;11018;51.258;6.806;2023-08-20T08:40:15;25.10;41.80
4354;DHT22;11018;51.258;6.806;2023-08-20T08:42:41;25.20;42.00
4354;DHT22;11018;51.258;6.806;2023-08-20T08:45:09;25.20;40.20
4354;DHT22;11018;51.258;6.806;2023-08-20T08:47:39;25.20;39.40
4354;DHT22;11018;51.258;6.806;2023-08-20T08:50:09;25.20;38.40
4354;DHT22;11018;51.258;6.806;2023-08-20T08:52:37;25.40;38.30
4354;DHT22;11018;51.258;6.806;2023-08-20T08:55:04;25.40;37.60
4354;DHT22;11018;51.258;6.806;2023-08-20T08:57:31;25.50;37.10
4354;DHT22;11018;51.258;6.806;2023-08-20T08:59:56;25.90;34.90
4354;DHT22;11018;51.258;6.806;2023-08-20T09:02:24;26.00;34.70
4354;DHT22;11018;51.258;6.806;2023-08-20T09:04:49;26.00;35.00
4354;DHT22;11018;51.258;6.806;2023-08-20T09:07:15;26.30;34.10
4354;DHT22;11018;51.258;6.806;2023-08-20T09:09:45;26.40;32.50
4354;DHT22;11018;51.258;6.806;2023-08-20T09:12:15;26.70;30.70
4354;DHT22;11018;51.258;6.806;2023-08-20T09:14:48;26.40;30.20
4354;DHT22;11018;51.258;6.806;2023-08-20T09:17:14;26.20;31.30
4354;DHT22;11018;51.258;6.806;2023-08-20T09:19:43;26.30;32.30
4354;DHT22;11018;51.258;6.806;2023-08-20T09:22:12;26.50;31.50
4354;DHT22;11018;51.258;6.806;2023-08-20T09:24:44;26.70;30.60
4354;DHT22;11018;51.258;6.806;2023-08-20T09:27:11;27.00;32.30
4354;DHT22;11018;51.258;6.806;2023-08-20T09:29:56;27.00;31.30
4354;DHT22;11018;51.258;6.806;2023-08-20T09:32:27;26.90;30.10
4354;DHT22;11018;51.258;6.806;2023-08-20T09:34:54;26.90;31.30
4354;DHT22;11018;51.258;6.806;2023-08-20T09:37:22;26.90;31.30
4354;DHT22;11018;51.258;6.806;2023-08-20T09:39:48;26.80;31.40
4354;DHT22;11018;51.258;6.806;2023-08-20T09:42:14;27.00;31.30
4354;DHT22;11018;51.258;6.806;2023-08-20T09:44:41;27.30;30.40
4354;DHT22;11018;51.258;6.806;2023-08-20T09:47:12;27.40;29.40
4354;DHT22;11018;51.258;6.806;2023-08-20T09:52:06;27.60;28.40
4354;DHT22;11018;51.258;6.806;2023-08-20T09:57:40;27.40;29.90
4354;DHT22;11018;51.258;6.806;2023-08-20T10:00:09;27.40;30.30
4354;DHT22;11018;51.258;6.806;2023-08-20T10:02:38;27.30;29.20
4354;DHT22;11018;51.258;6.806;2023-08-20T10:05:05;27.20;30.80
4354;DHT22;11018;51.258;6.806;2023-08-20T10:07:31;27.60;29.30
4354;DHT22;11018;51.258;6.806;2023-08-20T10:09:58;27.70;28.40
4354;DHT22;11018;51.258;6.806;2023-08-20T10:12:29;27.30;28.20
4354;DHT22;11018;51.258;6.806;2023-08-20T10:15:00;26.90;28.70
4354;DHT22;11018;51.258;6.806;2023-08-20T10:17:33;26.80;29.70
4354;DHT22;11018;51.258;6.806;2023-08-20T10:19:59;26.80;30.30
4354;DHT22;11018;51.258;6.806;2023-08-20T10:22:36;26.70;30.80
4354;DHT22;11018;51.258;6.806;2023-08-20T10:25:05;26.60;29.90
4354;DHT22;11018;51.258;6.806;2023-08-20T10:27:33;26.80;29.90
4354;DHT22;11018;51.258;6.806;2023-08-20T10:30:00;27.20;29.10
4354;DHT22;11018;51.258;6.806;2023-08-20T10:35:10;27.70;27.70
4354;DHT22;11018;51.258;6.806;2023-08-20T10:37:36;27.60;27.90
4354;DHT22;11018;51.258;6.806;2023-08-20T10:40:03;27.40;28.40
4354;DHT22;11018;51.258;6.806;2023-08-20T10:42:29;27.50;27.70
4354;DHT22;11018;51.258;6.806;2023-08-20T10:47:44;27.80;26.20
4354;DHT22;11018;51.258;6.806;2023-08-20T10:50:12;28.20;26.50
4354;DHT22;11018;51.258;6.806;2023-08-20T10:52:41;28.20;25.30
4354;DHT22;11018;51.258;6.806;2023-08-20T10:55:13;28.20;25.50
4354;DHT22;11018;51.258;6.806;2023-08-20T10:57:40;28.20;24.70
4354;DHT22;11018;51.258;6.806;2023-08-20T11:00:06;28.40;25.70
4354;DHT22;11018;51.258;6.806;2023-08-20T11:02:37;28.20;26.30
4354;DHT22;11018;51.258;6.806;2023-08-20T11:05:03;27.80;27.10
4354;DHT22;11018;51.258;6.806;2023-08-20T11:07:30;27.40;27.40
4354;DHT22;11018;51.258;6.806;2023-08-20T11:09:57;27.40;27.40
4354;DHT22;11018;51.258;6.806;2023-08-20T11:12:23;27.50;28.10
4354;DHT22;11018;51.258;6.806;2023-08-20T11:14:48;27.50;28.90
4354;DHT22;11018;51.258;6.806;2023-08-20T11:17:14;27.20;29.40
4354;DHT22;11018;51.258;6.806;2023-08-20T11:19:40;27.00;30.00
4354;DHT22;11018;51.258;6.806;2023-08-20T11:22:06;27.10;30.20
4354;DHT22;11018;51.258;6.806;2023-08-20T11:24:31;27.20;30.10
4354;DHT22;11018;51.258;6.806;2023-08-20T11:26:57;27.30;30.30
4354;DHT22;11018;51.258;6.806;2023-08-20T11:29:25;27.40;29.90
4354;DHT22;11018;51.258;6.806;2023-08-20T11:31:52;27.70;28.20
4354;DHT22;11018;51.258;6.806;2023-08-20T11:34:19;27.80;27.50
4354;DHT22;11018;51.258;6.806;2023-08-20T11:36:44;27.60;26.80
4354;DHT22;11018;51.258;6.806;2023-08-20T11:39:10;27.30;28.50
4354;DHT22;11018;51.258;6.806;2023-08-20T11:41:37;27.30;29.20
4354;DHT22;11018;51.258;6.806;2023-08-20T11:44:03;27.40;28.20
4354;DHT22;11018;51.258;6.806;2023-08-20T11:46:29;27.50;27.70
4354;DHT22;11018;51.258;6.806;2023-08-20T11:49:05;27.60;28.00
4354;DHT22;11018;51.258;6.806;2023-08-20T11:51:41;27.60;27.20
4354;DHT22;11018;51.258;6.806;2023-08-20T11:54:08;27.90;28.10
4354;DHT22;11018;51.258;6.806;2023-08-20T11:56:34;27.80;26.70
4354;DHT22;11018;51.258;6.806;2023-08-20T11:59:01;27.50;26.50
4354;DHT22;11018;51.258;6.806;2023-08-20T12:01:31;27.50;28.00
4354;DHT22;11018;51.258;6.806;2023-08-20T12:04:04;27.90;26.40
4354;DHT22;11018;51.258;6.806;2023-08-20T12:06:31;28.30;25.00
4354;DHT22;11018;51.258;6.806;2023-08-20T12:09:00;28.40;25.70
4354;DHT22;11018;51.258;6.806;2023-08-20T12:11:26;28.80;23.80
4354;DHT22;11018;51.258;6.806;2023-08-20T12:13:52;28.90;23.10
4354;DHT22;11018;51.258;6.806;2023-08-20T12:16:18;28.40;23.90
4354;DHT22;11018;51.258;6.806;2023-08-20T12:18:46;27.80;24.80
4354;DHT22;11018;51.258;6.806;2023-08-20T12:21:11;27.50;26.70
4354;DHT22;11018;51.258;6.806;2023-08-20T12:23:37;27.60;26.50
4354;DHT22;11018;51.258;6.806;2023-08-20T12:26:02;27.60;26.00
4354;DHT22;11018;51.258;6.806;2023-08-20T12:28:28;27.50;26.10
4354;DHT22;11018;51.258;6.806;2023-08-20T12:30:54;27.40;26.00
4354;DHT22;11018;51.258;6.806;2023-08-20T12:33:19;27.50;26.20
4354;DHT22;11018;51.258;6.806;2023-08-20T12:35:46;27.70;26.10
4354;DHT22;11018;51.258;6.806;2023-08-20T12:38:12;27.70;25.00
4354;DHT22;11018;51.258;6.806;2023-08-20T12:40:37;27.80;25.30
4354;DHT22;11018;51.258;6.806;2023-08-20T12:43:03;28.30;25.30
4354;DHT22;11018;51.258;6.806;2023-08-20T12:45:29;28.60;23.10
4354;DHT22;11018;51.258;6.806;2023-08-20T12:47:55;28.40;23.10
4354;DHT22;11018;51.258;6.806;2023-08-20T12:50:21;28.20;25.10
4354;DHT22;11018;51.258;6.806;2023-08-20T12:52:46;28.30;23.60
4354;DHT22;11018;51.258;6.806;2023-08-20T12:55:14;28.10;23.80
4354;DHT22;11018;51.258;6.806;2023-08-20T12:57:53;28.00;24.10
4354;DHT22;11018;51.258;6.806;2023-08-20T13:00:19;27.80;24.00
4354;DHT22;11018;51.258;6.806;2023-08-20T13:02:45;27.80;25.50
4354;DHT22;11018;51.258;6.806;2023-08-20T13:05:11;27.90;24.10
4354;DHT22;11018;51.258;6.806;2023-08-20T13:07:37;27.80;24.20
4354;DHT22;11018;51.258;6.806;2023-08-20T13:10:03;27.80;23.60
4354;DHT22;11018;51.258;6.806;2023-08-20T13:12:32;27.90;24.50
4354;DHT22;11018;51.258;6.806;2023-08-20T13:14:59;28.00;24.30
4354;DHT22;11018;51.258;6.806;2023-08-20T13:17:25;27.90;23.40
4354;DHT22;11018;51.258;6.806;2023-08-20T13:19:51;27.90;23.80
4354;DHT22;11018;51.258;6.806;2023-08-20T13:22:17;28.30;22.70
4354;DHT22;11018;51.258;6.806;2023-08-20T13:24:43;28.40;21.90
4354;DHT22;11018;51.258;6.806;2023-08-20T13:27:08;28.40;23.30
4354;DHT22;11018;51.258;6.806;2023-08-20T13:29:34;28.20;22.30
4354;DHT22;11018;51.258;6.806;2023-08-20T13:31:59;28.10;23.30
4354;DHT22;11018;51.258;6.806;2023-08-20T13:34:29;28.30;22.70
4354;DHT22;11018;51.258;6.806;2023-08-20T13:36:54;28.60;20.60
4354;DHT22;11018;51.258;6.806;2023-08-20T13:39:20;28.40;21.40
4354;DHT22;11018;51.258;6.806;2023-08-20T13:41:48;28.40;21.90
4354;DHT22;11018;51.258;6.806;2023-08-20T13:44:14;29.00;20.90
4354;DHT22;11018;51.258;6.806;2023-08-20T13:46:39;29.70;20.30
4354;DHT22;11018;51.258;6.806;2023-08-20T13:49:05;30.70;18.80
4354;DHT22;11018;51.258;6.806;2023-08-20T13:51:30;30.70;17.60
4354;DHT22;11018;51.258;6.806;2023-08-20T13:53:56;31.10;17.60
4354;DHT22;11018;51.258;6.806;2023-08-20T13:56:22;30.50;18.20
4354;DHT22;11018;51.258;6.806;2023-08-20T13:58:48;30.30;17.80
4354;DHT22;11018;51.258;6.806;2023-08-20T14:01:13;30.50;18.10
4354;DHT22;11018;51.258;6.806;2023-08-20T14:03:39;31.00;17.50
4354;DHT22;11018;51.258;6.806;2023-08-20T14:06:05;31.00;16.50
4354;DHT22;11018;51.258;6.806;2023-08-20T14:08:32;30.70;16.70
4354;DHT22;11018;51.258;6.806;2023-08-20T14:10:57;30.80;17.30
4354;DHT22;11018;51.258;6.806;2023-08-20T14:13:23;30.70;16.30
4354;DHT22;11018;51.258;6.806;2023-08-20T14:15:49;31.00;16.90
4354;DHT22;11018;51.258;6.806;2023-08-20T14:18:15;31.70;15.50
4354;DHT22;11018;51.258;6.806;2023-08-20T14:20:40;31.90;14.70
4354;DHT22;11018;51.258;6.806;2023-08-20T14:23:06;32.20;13.60
4354;DHT22;11018;51.258;6.806;2023-08-20T14:25:32;32.00;14.10
4354;DHT22;11018;51.258;6.806;2023-08-20T14:27:57;31.80;14.70
4354;DHT22;11018;51.258;6.806;2023-08-20T14:30:23;31.80;15.10
4354;DHT22;11018;51.258;6.806;2023-08-20T14:32:48;31.60;15.10
4354;DHT22;11018;51.258;6.806;2023-08-20T14:35:14;31.20;15.70
4354;DHT22;11018;51.258;6.806;2023-08-20T14:37:40;32.40;14.70
4354;DHT22;11018;51.258;6.806;2023-08-20T14:40:05;33.10;13.00
4354;DHT22;11018;51.258;6.806;2023-08-20T14:42:32;32.60;12.50
4354;DHT22;11018;51.258;6.806;2023-08-20T14:44:58;32.60;12.90
4354;DHT22;11018;51.258;6.806;2023-08-20T14:47:23;32.40;13.10
4354;DHT22;11018;51.258;6.806;2023-08-20T14:49:49;32.70;13.10
4354;DHT22;11018;51.258;6.806;2023-08-20T14:52:15;32.30;13.90
4354;DHT22;11018;51.258;6.806;2023-08-20T14:54:41;32.80;13.00
4354;DHT22;11018;51.258;6.806;2023-08-20T14:57:07;32.40;13.40
4354;DHT22;11018;51.258;6.806;2023-08-20T14:59:33;32.40;13.60
4354;DHT22;11018;51.258;6.806;2023-08-20T15:01:59;32.70;12.30
4354;DHT22;11018;51.258;6.806;2023-08-20T15:04:25;32.80;13.10
4354;DHT22;11018;51.258;6.806;2023-08-20T15:06:50;33.20;12.00
4354;DHT22;11018;51.258;6.806;2023-08-20T15:09:16;32.60;12.50
4354;DHT22;11018;51.258;6.806;2023-08-20T15:11:42;33.00;12.80
4354;DHT22;11018;51.258;6.806;2023-08-20T15:14:08;33.00;12.50
4354;DHT22;11018;51.258;6.806;2023-08-20T15:16:33;33.10;12.40
4354;DHT22;11018;51.258;6.806;2023-08-20T15:18:59;33.80;10.30
4354;DHT22;11018;51.258;6.806;2023-08-20T15:21:25;32.90;10.70
4354;DHT22;11018;51.258;6.806;2023-08-20T15:23:51;31.90;13.20
4354;DHT22;11018;51.258;6.806;2023-08-20T15:26:16;32.30;12.60
4354;DHT22;11018;51.258;6.806;2023-08-20T15:28:42;33.50;10.90
4354;DHT22;11018;51.258;6.806;2023-08-20T15:31:08;33.60;10.50
4354;DHT22;11018;51.258;6.806;2023-08-20T15:33:34;34.00;9.70
4354;DHT22;11018;51.258;6.806;2023-08-20T15:36:00;34.50;9.00
4354;DHT22;11018;51.258;6.806;2023-08-20T15:38:26;34.20;9.30
4354;DHT22;11018;51.258;6.806;2023-08-20T15:40:54;34.20;8.70
4354;DHT22;11018;51.258;6.806;2023-08-20T15:43:19;34.40;9.10
4354;DHT22;11018;51.258;6.806;2023-08-20T15:45:46;34.50;9.20
4354;DHT22;11018;51.258;6.806;2023-08-20T15:48:12;34.60;8.20
4354;DHT22;11018;51.258;6.806;2023-08-20T15:50:38;33.70;9.30
4354;DHT22;11018;51.258;6.806;2023-08-20T15:56:25;34.40;8.50
4354;DHT22;11018;51.258;6.806;2023-08-20T15:58:51;35.00;8.00
4354;DHT22;11018;51.258;6.806;2023-08-20T16:01:17;35.20;7.00